Issaquah, WA

11:59 AM PDT on April 25, 2015 (GMT -0700)
Eastgate (Hills south of I-90 / 148th Ave Jct) | | Change Station
CLOSE
Current Station
Personal Weather Station
Location: Bellevue, WA
Elevation: 976 ft
Nearby Weather Stations

Elev 976 ft 47.55 °N, 122.14 °W | Updated 4 minutes ago

Mostly Cloudy
Mostly Cloudy
49.2 °F
Feels Like 49 °F
N
0.0
Wind Variable Wind from SE
Gusts 2.0 mph

Today
High -- | Low -- °F
--% Chance of Precip.
Yesterday
High -- | Low -- °F
Precip. -- in
6:01 AM 8:12 PM
Waxing Crescent, 48% visible
Pressure 30.00 in
Visibility 10.0 miles
Clouds Scattered Clouds 4900 ft
Mostly Cloudy 7500 ft
Windchill 49 °F
Dew Point 40 °F
Humidity 70%
Rainfall 0.15 in
Snow Depth Not available.
UV 4 out of 12
Pollen 8.50 out of 12
Air Quality Not available.
Flu Activity Regional
METAR KRNT 251853Z 00000KT 10SM SCT049 BKN075 12/02 A2998 RMK AO2 SLP158 T01170022

More Conditions Fewer Conditions

Pressure 30.00 in
Visibility 10.0 miles
Clouds Scattered Clouds 4900 ft
Mostly Cloudy 7500 ft
Windchill 49 °F
Dew Point 40 °F
Humidity 70%
Rainfall 0.15 in
Snow Depth Not available.
UV 4 out of 12
Pollen 8.50 out of 12
Air Quality Not available.
Flu Activity Regional
METAR KRNT 251853Z 00000KT 10SM SCT049 BKN075 12/02 A2998 RMK AO2 SLP158 T01170022

More Conditions Fewer Conditions

10-Day Weather Forecast

Almanac

Astronomy

Apr. 25, 2015 Rise Set
Actual Time
Civil Twilight
Nautical Twilight
Astronomical Twilight
Moon
Length of Visible Light
Length of Day
Tomorrow will be .
, % of the Moon is Illuminated

Today's Extremes

State Highs State Lows

Community

WunderPhotos

Upload Photos

1,816,767 photos uploaded!

WunderBlogs® & News

Nearby

Air Quality

  Air Quality AQ Index Pollutant
Not available.

Snow Depth

Station Depth Elevation

Earthquake Activity

City Distance Mag. Time & Date
Minimum magnitude displayed is 2.5.

Coastal Water Temperatures

Place Temperature

Stations

Nearby Weather Stations

Station Location Temp. Windchill Dew Point Humidity Wind Precip. Elev Updated Type